logo
Rechercher aéroport 
image banner adimage banner adimage banner ad
image banner ad

FAUNDE - Underberg

Situé à , South Africa

ICAO - , IATA -

Données fournies par Airmate  

Information générale

Coordonnées: S29°44'57" E29°30'15"
Élévation : 5055 feet MSL.
 
Voir autres Aéroports à Kwazulu-Natal

Données opérationnelles

Special qualification required
Heure actuelle UTC:
Heure actuelle locale:
Météo à : - ( 0 km )
METAR: EHKD 220925Z AUTO 20017KT 170V230 9999 FEW011 OVC015 16/13 Q1005 WHT NOSIG
Voir NOTAMs / SUP AIP / TFR affectant cet aéroport [VIEW]
Fréquences de communication: [VIEW]

Pistes:

Identifiant RWYQFULongueur (ft)Largeur (ft)SurfaceLDA (ft)
04156°252649SAND
22336°252649SAND

Coordonnées de l'aéroport

Adresse: South Africa

Vue satellite de FAUNDE